Time;durP1;ratioP1;P1;durP2;ratioP2;P2;SDS_P1;SDS_P2;PMS_P1;PMS_P2;Temp;Humidity;BMP_temperature;BMP_pressure;BME280_temperature;BME280_humidity;BME280_pressure;Samples;Min_cycle;Max_cycle;Signal;HPM_P1;HPM_P2
2022/03/28 00:02:04;;;;;;;53.85;32.40;;;;;;;;;;5096786;28;20035;-71
2022/03/28 00:04:30;;;;;;;40.28;24.08;;;;;;;;;;5100843;28;20031;-72
2022/03/28 00:06:55;;;;;;;33.65;21.02;;;;;;;;;;5104423;27;20024;-72
2022/03/28 00:09:20;;;;;;;29.58;17.15;;;;;;;;;;5096192;28;20024;-71
2022/03/28 00:11:46;;;;;;;25.02;16.75;;;;;;;;;;5099635;28;20782;-75
2022/03/28 00:14:11;;;;;;;35.42;22.35;;;;;;;;;;5097627;28;20039;-71
2022/03/28 00:16:37;;;;;;;28.50;16.05;;;;;;;;;;5098395;28;20027;-71
2022/03/28 00:19:02;;;;;;;19.65;13.07;;;;;;;;;;5097180;28;20741;-74
2022/03/28 00:21:28;;;;;;;17.38;12.82;;;;;;;;;;5097528;28;20129;-76
2022/03/28 00:23:53;;;;;;;50.67;26.98;;;;;;;;;;5097553;28;20459;-71
2022/03/28 00:26:19;;;;;;;54.03;30.55;;;;;;;;;;5087210;28;20327;-71
2022/03/28 00:28:44;;;;;;;32.15;18.80;;;;;;;;;;5100428;28;20366;-73
2022/03/28 00:31:10;;;;;;;23.08;14.80;;;;;;;;;;5096149;28;20019;-70
2022/03/28 00:33:35;;;;;;;19.08;12.27;;;;;;;;;;5085397;27;20413;-70
2022/03/28 00:36:01;;;;;;;26.73;16.95;;;;;;;;;;5092177;27;20020;-72
2022/03/28 00:38:26;;;;;;;56.33;31.35;;;;;;;;;;5089206;28;21040;-75
2022/03/28 00:40:51;;;;;;;38.35;20.95;;;;;;;;;;5092305;28;20023;-75
2022/03/28 00:43:17;;;;;;;41.85;24.35;;;;;;;;;;5099298;28;20042;-75
2022/03/28 00:45:42;;;;;;;42.28;25.67;;;;;;;;;;5099012;28;20055;-72
2022/03/28 00:48:09;;;;;;;46.85;26.35;;;;;;;;;;5095917;28;20027;-71
2022/03/28 00:50:36;;;;;;;26.50;16.02;;;;;;;;;;5092861;28;20039;-71
2022/03/28 00:53:02;;;;;;;25.08;14.82;;;;;;;;;;5107581;27;20514;-71
2022/03/28 00:55:28;;;;;;;24.10;13.70;;;;;;;;;;5095252;28;20422;-71
2022/03/28 00:57:53;;;;;;;45.58;24.75;;;;;;;;;;5098015;27;20028;-74
2022/03/28 01:00:19;;;;;;;50.15;27.58;;;;;;;;;;5093519;28;20126;-70
2022/03/28 01:02:45;;;;;;;62.38;33.95;;;;;;;;;;5091495;28;20089;-71
2022/03/28 01:05:11;;;;;;;58.08;32.08;;;;;;;;;;5098225;28;20042;-72
2022/03/28 01:07:40;;;;;;;39.00;21.73;;;;;;;;;;5096328;28;20023;-71
2022/03/28 01:10:08;;;;;;;46.40;27.17;;;;;;;;;;5097362;28;20035;-70
2022/03/28 01:12:34;;;;;;;50.90;29.55;;;;;;;;;;5113758;27;20027;-70
2022/03/28 01:15:00;;;;;;;57.92;32.85;;;;;;;;;;5096589;28;20023;-71
2022/03/28 01:20:10;;;;;;;51.15;28.50;;;;;;;;;;5098750;28;20046;-74
2022/03/28 01:22:36;;;;;;;35.88;21.23;;;;;;;;;;5096760;28;20031;-75
2022/03/28 01:25:03;;;;;;;48.13;27.50;;;;;;;;;;5091943;28;20020;-73
2022/03/28 01:27:28;;;;;;;51.40;29.25;;;;;;;;;;5093442;28;20176;-69
2022/03/28 01:29:54;;;;;;;56.60;31.50;;;;;;;;;;5099001;28;20098;-71
2022/03/28 01:32:19;;;;;;;65.45;33.80;;;;;;;;;;5097775;28;20035;-75
2022/03/28 01:34:45;;;;;;;78.57;39.63;;;;;;;;;;5098090;28;20043;-72
2022/03/28 01:37:10;;;;;;;72.68;37.13;;;;;;;;;;5096866;28;20031;-76
2022/03/28 01:39:36;;;;;;;77.45;36.35;;;;;;;;;;5097004;28;20516;-71
2022/03/28 01:42:01;;;;;;;61.17;29.95;;;;;;;;;;5097731;28;20059;-74
2022/03/28 01:44:26;;;;;;;55.80;28.00;;;;;;;;;;5097356;28;20431;-73
2022/03/28 01:46:52;;;;;;;31.30;18.95;;;;;;;;;;5095876;28;20027;-71
2022/03/28 01:49:19;;;;;;;46.20;23.17;;;;;;;;;;5099121;28;20059;-71
2022/03/28 01:51:45;;;;;;;66.25;31.13;;;;;;;;;;5089776;28;20031;-72
2022/03/28 01:54:10;;;;;;;68.57;35.25;;;;;;;;;;5105505;27;20036;-72
2022/03/28 01:56:36;;;;;;;65.63;35.00;;;;;;;;;;5095089;28;20027;-77
2022/03/28 01:59:02;;;;;;;67.82;33.42;;;;;;;;;;5094687;28;20103;-71
2022/03/28 02:01:27;;;;;;;52.58;28.50;;;;;;;;;;5095143;28;20506;-72
2022/03/28 02:03:53;;;;;;;53.05;27.00;;;;;;;;;;5098350;28;20031;-72
2022/03/28 02:06:18;;;;;;;43.28;24.67;;;;;;;;;;5095611;28;20354;-70
2022/03/28 02:08:43;;;;;;;47.03;25.15;;;;;;;;;;5096469;28;20107;-75
2022/03/28 02:11:09;;;;;;;42.15;23.60;;;;;;;;;;5094807;28;20034;-74
2022/03/28 02:13:34;;;;;;;40.75;22.20;;;;;;;;;;5096992;28;20038;-76
2022/03/28 02:16:00;;;;;;;31.65;18.17;;;;;;;;;;5097864;28;20019;-76
2022/03/28 02:18:28;;;;;;;36.65;21.05;;;;;;;;;;5096737;28;20034;-73
2022/03/28 02:20:54;;;;;;;31.27;19.77;;;;;;;;;;5098286;28;20112;-75
2022/03/28 02:23:20;;;;;;;30.70;18.80;;;;;;;;;;5097937;28;20458;-76
2022/03/28 02:25:45;;;;;;;33.08;19.95;;;;;;;;;;5086246;28;20443;-76
2022/03/28 02:28:11;;;;;;;33.10;18.75;;;;;;;;;;5097270;28;20434;-73
2022/03/28 02:30:37;;;;;;;32.80;20.35;;;;;;;;;;5098629;28;20050;-73
2022/03/28 02:33:02;;;;;;;36.70;19.83;;;;;;;;;;5097031;28;20430;-72
2022/03/28 02:35:28;;;;;;;42.28;22.65;;;;;;;;;;5097104;28;20084;-72
2022/03/28 02:37:53;;;;;;;43.55;23.42;;;;;;;;;;5098088;28;20020;-72
2022/03/28 02:40:18;;;;;;;43.88;23.85;;;;;;;;;;5094220;28;20115;-77
2022/03/28 02:42:44;;;;;;;40.47;21.08;;;;;;;;;;5085265;28;20027;-73
2022/03/28 02:45:10;;;;;;;34.53;19.55;;;;;;;;;;5091530;28;20047;-71
2022/03/28 02:47:35;;;;;;;38.65;20.75;;;;;;;;;;5089203;28;20454;-71
2022/03/28 02:50:00;;;;;;;55.90;29.38;;;;;;;;;;5095345;28;20127;-70
2022/03/28 02:52:26;;;;;;;32.95;17.20;;;;;;;;;;5098576;28;20350;-77
2022/03/28 02:54:51;;;;;;;45.47;23.38;;;;;;;;;;5094196;28;20097;-69
2022/03/28 02:57:17;;;;;;;52.78;27.83;;;;;;;;;;5097777;28;20028;-69
2022/03/28 02:59:42;;;;;;;46.10;23.60;;;;;;;;;;5099245;28;20033;-70
2022/03/28 03:02:07;;;;;;;47.75;23.77;;;;;;;;;;5101270;28;20085;-70
2022/03/28 03:04:33;;;;;;;39.72;21.98;;;;;;;;;;5087684;27;20035;-80
2022/03/28 03:06:59;;;;;;;35.80;19.27;;;;;;;;;;5100311;28;20032;-73
2022/03/28 03:09:24;;;;;;;39.10;25.05;;;;;;;;;;5100183;28;20447;-71
2022/03/28 03:11:50;;;;;;;36.38;19.95;;;;;;;;;;5098095;28;20030;-74
2022/03/28 03:14:16;;;;;;;32.95;17.08;;;;;;;;;;5099514;28;20062;-69
2022/03/28 03:16:41;;;;;;;24.35;14.35;;;;;;;;;;5089687;28;20031;-69
2022/03/28 03:19:07;;;;;;;35.88;21.25;;;;;;;;;;5100512;28;20063;-70
2022/03/28 03:21:32;;;;;;;34.03;19.58;;;;;;;;;;5100185;28;20028;-69
2022/03/28 03:23:58;;;;;;;34.63;19.95;;;;;;;;;;5101662;28;20036;-76
2022/03/28 03:26:23;;;;;;;27.45;15.93;;;;;;;;;;5092829;27;20098;-72
2022/03/28 03:28:49;;;;;;;28.20;15.63;;;;;;;;;;5094332;28;20034;-72
2022/03/28 03:31:14;;;;;;;24.75;14.98;;;;;;;;;;5100798;28;20059;-72
2022/03/28 03:33:40;;;;;;;27.20;18.58;;;;;;;;;;5101397;28;20043;-72
2022/03/28 03:36:06;;;;;;;30.25;19.20;;;;;;;;;;5099450;28;20081;-70
2022/03/28 03:38:31;;;;;;;81.93;40.60;;;;;;;;;;5099255;28;20103;-71
2022/03/28 03:40:57;;;;;;;40.80;20.98;;;;;;;;;;5093390;28;20131;-78
2022/03/28 03:43:24;;;;;;;35.28;18.38;;;;;;;;;;5093563;28;20035;-72
2022/03/28 03:45:49;;;;;;;33.85;20.10;;;;;;;;;;5099893;28;20027;-71
2022/03/28 03:48:15;;;;;;;43.67;27.08;;;;;;;;;;5084476;28;20758;-71
2022/03/28 03:50:41;;;;;;;53.42;28.23;;;;;;;;;;5085213;28;20044;-71
2022/03/28 03:53:07;;;;;;;36.63;22.52;;;;;;;;;;5084370;28;20438;-72
2022/03/28 03:55:32;;;;;;;36.58;21.27;;;;;;;;;;5084224;28;20024;-74
2022/03/28 03:57:57;;;;;;;33.05;17.23;;;;;;;;;;5085108;28;20041;-73
2022/03/28 04:00:23;;;;;;;30.25;17.27;;;;;;;;;;5093126;28;20405;-78
2022/03/28 04:02:50;;;;;;;29.92;21.45;;;;;;;;;;5085068;28;20028;-73
2022/03/28 04:05:15;;;;;;;38.17;22.88;;;;;;;;;;5084962;28;20024;-73
2022/03/28 04:07:41;;;;;;;30.95;21.88;;;;;;;;;;5089010;28;20024;-72
2022/03/28 04:10:07;;;;;;;34.03;20.20;;;;;;;;;;5093520;28;20036;-75
2022/03/28 04:12:33;;;;;;;33.90;17.92;;;;;;;;;;5097925;28;20032;-72
2022/03/28 04:14:59;;;;;;;40.22;22.08;;;;;;;;;;5115088;27;20031;-74
2022/03/28 04:17:26;;;;;;;30.77;19.80;;;;;;;;;;5086870;28;20035;-71
2022/03/28 04:19:51;;;;;;;27.65;18.73;;;;;;;;;;5096956;28;20015;-72
2022/03/28 04:22:16;;;;;;;23.20;13.90;;;;;;;;;;5100369;28;20112;-75
2022/03/28 04:24:42;;;;;;;20.77;13.30;;;;;;;;;;5098171;28;20035;-71
2022/03/28 04:27:07;;;;;;;38.00;25.25;;;;;;;;;;5096485;28;20046;-75
2022/03/28 04:29:32;;;;;;;75.53;42.85;;;;;;;;;;5088040;28;20035;-71
2022/03/28 04:31:58;;;;;;;103.75;56.58;;;;;;;;;;5096174;28;20032;-71
2022/03/28 04:34:23;;;;;;;44.63;28.15;;;;;;;;;;5090237;28;20159;-72
2022/03/28 04:36:48;;;;;;;36.00;22.65;;;;;;;;;;5107385;28;20058;-78
2022/03/28 04:39:14;;;;;;;52.85;31.70;;;;;;;;;;5101302;28;20342;-73
2022/03/28 04:41:39;;;;;;;65.78;37.55;;;;;;;;;;5105945;28;20110;-73
2022/03/28 04:44:05;;;;;;;59.67;34.58;;;;;;;;;;5097603;28;20031;-74
2022/03/28 04:46:31;;;;;;;66.80;37.40;;;;;;;;;;5084297;28;20034;-73
2022/03/28 04:48:56;;;;;;;139.93;76.40;;;;;;;;;;5110206;27;20431;-72
2022/03/28 04:51:21;;;;;;;310.77;151.10;;;;;;;;;;5095908;28;20046;-74
2022/03/28 04:53:47;;;;;;;304.38;146.18;;;;;;;;;;5095804;28;20434;-76
2022/03/28 04:56:12;;;;;;;252.45;123.57;;;;;;;;;;5093946;28;20027;-73
2022/03/28 04:58:38;;;;;;;209.65;89.63;;;;;;;;;;5092705;28;20024;-72
2022/03/28 05:01:03;;;;;;;95.88;45.53;;;;;;;;;;5092225;28;20023;-72
2022/03/28 05:03:28;;;;;;;155.50;77.75;;;;;;;;;;5093921;28;20032;-72
2022/03/28 05:05:54;;;;;;;106.50;49.83;;;;;;;;;;5094650;28;20431;-72
2022/03/28 05:08:19;;;;;;;71.97;37.92;;;;;;;;;;5097725;28;20408;-73
2022/03/28 05:10:45;;;;;;;49.05;22.55;;;;;;;;;;5087562;28;20519;-73
2022/03/28 05:13:10;;;;;;;40.88;28.65;;;;;;;;;;5083826;28;20042;-73
2022/03/28 05:15:35;;;;;;;38.72;23.88;;;;;;;;;;5084951;28;20454;-72
2022/03/28 05:18:01;;;;;;;157.05;70.25;;;;;;;;;;5086716;28;20027;-72
2022/03/28 05:20:26;;;;;;;93.63;44.70;;;;;;;;;;5097006;28;20064;-72
2022/03/28 05:22:52;;;;;;;73.30;35.78;;;;;;;;;;5087027;28;20129;-74
2022/03/28 05:25:17;;;;;;;91.10;46.13;;;;;;;;;;5092933;28;20035;-73
2022/03/28 05:27:43;;;;;;;68.60;38.35;;;;;;;;;;5084895;28;20381;-73
2022/03/28 05:30:09;;;;;;;61.85;34.50;;;;;;;;;;5096158;28;20102;-71
2022/03/28 05:32:34;;;;;;;73.85;40.15;;;;;;;;;;5097145;28;20114;-73
2022/03/28 05:34:59;;;;;;;145.30;74.70;;;;;;;;;;5096899;28;20028;-75
2022/03/28 05:37:25;;;;;;;180.40;96.88;;;;;;;;;;5083751;28;20024;-72
2022/03/28 05:39:50;;;;;;;152.50;77.65;;;;;;;;;;5089278;28;20047;-75
2022/03/28 05:42:17;;;;;;;136.32;63.63;;;;;;;;;;5097893;28;20027;-72
2022/03/28 05:44:42;;;;;;;103.10;50.65;;;;;;;;;;5095495;28;20085;-72
2022/03/28 05:47:08;;;;;;;108.07;54.38;;;;;;;;;;5096734;28;20487;-72
2022/03/28 05:49:33;;;;;;;106.20;55.60;;;;;;;;;;5095563;28;20044;-74
2022/03/28 05:51:58;;;;;;;66.47;37.35;;;;;;;;;;5084838;28;20015;-72
2022/03/28 05:54:24;;;;;;;104.03;51.33;;;;;;;;;;5096768;28;20027;-74
2022/03/28 05:56:49;;;;;;;91.40;47.15;;;;;;;;;;5097320;28;20085;-74
2022/03/28 05:59:15;;;;;;;89.57;44.33;;;;;;;;;;5089064;28;20031;-73
2022/03/28 06:01:40;;;;;;;97.05;47.88;;;;;;;;;;5084267;28;20375;-73
2022/03/28 06:04:06;;;;;;;101.32;53.35;;;;;;;;;;5083636;28;20075;-73
2022/03/28 06:06:32;;;;;;;246.00;117.95;;;;;;;;;;5081399;28;20027;-75
2022/03/28 06:08:58;;;;;;;119.10;62.25;;;;;;;;;;5084963;28;20027;-73
2022/03/28 06:11:23;;;;;;;114.97;62.75;;;;;;;;;;5093714;28;20454;-73
2022/03/28 06:13:48;;;;;;;159.05;87.00;;;;;;;;;;5092445;28;20133;-72
2022/03/28 06:16:14;;;;;;;109.22;56.05;;;;;;;;;;5085407;28;20073;-72
2022/03/28 06:18:39;;;;;;;49.80;27.00;;;;;;;;;;5082704;28;20027;-72
2022/03/28 06:21:05;;;;;;;90.53;56.30;;;;;;;;;;5083048;28;20057;-75
2022/03/28 06:23:30;;;;;;;62.67;37.45;;;;;;;;;;5082988;28;20032;-72
2022/03/28 06:25:56;;;;;;;58.83;34.13;;;;;;;;;;5092808;28;20024;-70
2022/03/28 06:28:21;;;;;;;51.05;33.05;;;;;;;;;;5091897;28;20429;-72
2022/03/28 06:30:47;;;;;;;49.33;31.35;;;;;;;;;;5093168;28;20122;-71
2022/03/28 06:33:13;;;;;;;49.55;32.35;;;;;;;;;;5093235;28;20035;-71
2022/03/28 06:35:39;;;;;;;44.75;28.35;;;;;;;;;;5096428;28;20050;-69
2022/03/28 06:38:05;;;;;;;46.67;29.13;;;;;;;;;;5092872;28;20035;-71
2022/03/28 06:40:30;;;;;;;48.63;31.55;;;;;;;;;;5097297;28;20020;-72
2022/03/28 06:42:55;;;;;;;49.85;31.65;;;;;;;;;;5100847;28;20028;-78
2022/03/28 06:45:21;;;;;;;245.57;103.65;;;;;;;;;;5094596;28;20027;-76
2022/03/28 06:47:51;;;;;;;131.98;61.20;;;;;;;;;;5104906;28;20088;-72
2022/03/28 06:50:17;;;;;;;196.70;82.93;;;;;;;;;;5105825;28;20138;-74
2022/03/28 06:52:42;;;;;;;58.13;27.52;;;;;;;;;;5108868;28;20445;-73
2022/03/28 06:55:08;;;;;;;44.67;22.67;;;;;;;;;;5108786;28;20039;-73
2022/03/28 06:57:33;;;;;;;130.18;50.08;;;;;;;;;;5108228;28;20116;-72
2022/03/28 06:59:58;;;;;;;82.38;35.25;;;;;;;;;;5108303;28;20438;-72
2022/03/28 07:02:24;;;;;;;67.47;29.42;;;;;;;;;;5106954;28;20031;-73
2022/03/28 07:04:49;;;;;;;118.65;46.60;;;;;;;;;;5107228;28;20046;-70
2022/03/28 07:07:15;;;;;;;182.30;72.82;;;;;;;;;;5103669;28;20031;-70
2022/03/28 07:09:40;;;;;;;63.17;30.80;;;;;;;;;;5105066;28;20047;-71
2022/03/28 07:12:06;;;;;;;55.85;28.83;;;;;;;;;;5099915;28;21558;-73
2022/03/28 07:14:32;;;;;;;60.90;29.33;;;;;;;;;;5099312;28;20031;-71
2022/03/28 07:16:57;;;;;;;40.78;20.67;;;;;;;;;;5099214;28;20024;-71
2022/03/28 07:19:23;;;;;;;33.13;17.40;;;;;;;;;;5106197;28;20096;-73
2022/03/28 07:21:48;;;;;;;61.83;30.80;;;;;;;;;;5097354;28;20115;-73
2022/03/28 07:24:15;;;;;;;48.40;22.08;;;;;;;;;;5098932;28;20035;-75
2022/03/28 07:26:44;;;;;;;65.82;24.67;;;;;;;;;;5093757;28;20030;-71
2022/03/28 07:29:09;;;;;;;93.27;38.70;;;;;;;;;;5099250;28;20019;-73
2022/03/28 07:31:39;;;;;;;32.55;16.25;;;;;;;;;;5085404;28;20026;-74
2022/03/28 07:36:49;;;;;;;41.40;19.20;;;;;;;;;;5095386;28;20042;-73
2022/03/28 07:39:15;;;;;;;30.30;13.90;;;;;;;;;;5098051;28;20442;-72
2022/03/28 07:41:40;;;;;;;31.58;16.88;;;;;;;;;;5098341;28;20430;-72
2022/03/28 07:44:06;;;;;;;33.28;15.48;;;;;;;;;;5097559;28;20074;-73
2022/03/28 07:46:31;;;;;;;34.20;12.57;;;;;;;;;;5084925;28;20442;-75
2022/03/28 07:48:56;;;;;;;31.20;15.43;;;;;;;;;;5096994;28;20362;-72
2022/03/28 07:51:22;;;;;;;55.45;26.92;;;;;;;;;;5098030;28;20031;-75
2022/03/28 07:53:48;;;;;;;55.10;23.27;;;;;;;;;;5100234;28;20034;-72
2022/03/28 07:56:13;;;;;;;27.88;13.57;;;;;;;;;;5084120;28;20088;-74
2022/03/28 07:58:39;;;;;;;25.70;13.35;;;;;;;;;;5089814;28;20024;-75
2022/03/28 08:01:04;;;;;;;24.33;11.63;;;;;;;;;;5084871;28;20328;-73
2022/03/28 08:03:30;;;;;;;33.70;15.57;;;;;;;;;;5082887;27;20442;-76
2022/03/28 08:05:55;;;;;;;57.53;30.17;;;;;;;;;;5083588;28;20023;-72
2022/03/28 08:08:21;;;;;;;22.95;10.93;;;;;;;;;;5088962;28;20027;-72
2022/03/28 08:10:46;;;;;;;16.42;9.68;;;;;;;;;;5080488;28;20031;-72
2022/03/28 08:13:12;;;;;;;27.70;14.65;;;;;;;;;;5088322;28;20032;-74
2022/03/28 08:15:37;;;;;;;25.80;10.80;;;;;;;;;;5112538;27;20016;-72
2022/03/28 08:18:03;;;;;;;31.50;14.32;;;;;;;;;;5099007;28;20020;-72
2022/03/28 08:20:28;;;;;;;23.98;13.20;;;;;;;;;;5095608;28;20024;-75
2022/03/28 08:22:54;;;;;;;24.52;13.90;;;;;;;;;;5095120;28;20431;-74
2022/03/28 08:25:20;;;;;;;22.77;11.60;;;;;;;;;;5082807;28;20033;-76
2022/03/28 08:27:46;;;;;;;43.00;18.63;;;;;;;;;;5086926;28;20110;-74
2022/03/28 08:30:12;;;;;;;29.17;14.43;;;;;;;;;;5095267;28;20107;-74
2022/03/28 08:32:38;;;;;;;19.02;8.98;;;;;;;;;;5097004;28;20758;-74
2022/03/28 08:35:05;;;;;;;14.88;7.38;;;;;;;;;;5097919;28;20031;-74
2022/03/28 08:37:31;;;;;;;30.17;10.20;;;;;;;;;;5090310;28;20051;-75
2022/03/28 08:39:57;;;;;;;20.10;8.80;;;;;;;;;;5079665;28;20116;-74
2022/03/28 08:42:22;;;;;;;19.00;8.10;;;;;;;;;;5096477;28;20024;-72
2022/03/28 08:44:48;;;;;;;16.27;8.00;;;;;;;;;;5081915;28;20039;-74
2022/03/28 08:47:17;;;;;;;21.17;7.85;;;;;;;;;;5090546;28;20023;-77
2022/03/28 08:49:42;;;;;;;15.05;8.00;;;;;;;;;;5093792;28;20147;-75
2022/03/28 08:52:07;;;;;;;13.25;8.60;;;;;;;;;;5083435;28;20036;-72
2022/03/28 08:54:33;;;;;;;23.42;14.98;;;;;;;;;;5091503;28;20031;-74
2022/03/28 08:56:58;;;;;;;23.92;15.00;;;;;;;;;;5105051;27;20359;-78
2022/03/28 08:59:23;;;;;;;13.30;8.77;;;;;;;;;;5084438;28;20027;-72
2022/03/28 09:01:49;;;;;;;13.95;8.43;;;;;;;;;;5096134;28;20015;-74
2022/03/28 09:04:15;;;;;;;15.75;7.90;;;;;;;;;;5091988;28;20039;-72
2022/03/28 09:06:42;;;;;;;17.08;9.63;;;;;;;;;;5095555;28;20026;-74
2022/03/28 09:09:11;;;;;;;24.45;11.88;;;;;;;;;;5098097;27;20076;-76
2022/03/28 09:11:36;;;;;;;14.70;8.23;;;;;;;;;;5094798;28;20485;-77
2022/03/28 09:14:02;;;;;;;19.92;8.68;;;;;;;;;;5096724;28;20133;-75
2022/03/28 09:16:31;;;;;;;16.98;8.77;;;;;;;;;;5095203;28;20051;-77
2022/03/28 09:18:57;;;;;;;;;;;;;;;;;;5096735;28;20108;-74
2022/03/28 09:21:23;;;;;;;20.00;9.20;;;;;;;;;;5094534;28;20338;-75
2022/03/28 09:23:50;;;;;;;15.35;7.93;;;;;;;;;;5096727;28;20043;-72
2022/03/28 09:26:18;;;;;;;18.27;9.65;;;;;;;;;;5096864;28;20030;-75
2022/03/28 09:28:46;;;;;;;20.58;11.80;;;;;;;;;;5085264;28;20028;-79
2022/03/28 09:31:19;;;;;;;16.02;8.95;;;;;;;;;;5082871;28;20458;-77
2022/03/28 09:34:03;;;;;;;10.25;7.18;;;;;;;;;;5084402;28;20024;-76
2022/03/28 09:36:38;;;;;;;13.35;8.00;;;;;;;;;;5085770;28;20024;-75
2022/03/28 09:39:04;;;;;;;14.93;8.90;;;;;;;;;;5082622;28;20034;-78
2022/03/28 09:41:30;;;;;;;17.02;9.23;;;;;;;;;;5089475;28;20089;-76
2022/03/28 09:43:56;;;;;;;14.00;9.32;;;;;;;;;;5087960;27;21029;-78
2022/03/28 09:46:25;;;;;;;12.55;8.52;;;;;;;;;;5087985;28;20024;-77
2022/03/28 09:48:50;;;;;;;11.73;7.10;;;;;;;;;;5083145;28;20019;-75
2022/03/28 09:51:18;;;;;;;16.98;8.15;;;;;;;;;;5093531;28;20042;-76
2022/03/28 09:53:44;;;;;;;12.90;7.45;;;;;;;;;;5096236;28;20411;-76
2022/03/28 09:56:11;;;;;;;12.27;7.15;;;;;;;;;;5084580;28;20428;-75
2022/03/28 09:58:46;;;;;;;17.02;11.82;;;;;;;;;;5083786;28;20027;-78
2022/03/28 10:01:19;;;;;;;13.48;8.45;;;;;;;;;;5080577;28;20035;-75
2022/03/28 10:03:46;;;;;;;13.63;6.82;;;;;;;;;;5081003;28;20355;-75
2022/03/28 10:06:12;;;;;;;13.25;6.57;;;;;;;;;;5081887;28;20027;-76
2022/03/28 10:08:38;;;;;;;13.10;7.50;;;;;;;;;;5083683;28;20039;-75
2022/03/28 10:11:04;;;;;;;11.18;7.15;;;;;;;;;;5084869;28;20050;-75
2022/03/28 10:13:30;;;;;;;15.80;6.97;;;;;;;;;;5082031;28;20027;-76
2022/03/28 10:15:56;;;;;;;19.38;7.68;;;;;;;;;;5080811;28;20358;-74
2022/03/28 10:18:21;;;;;;;10.95;6.18;;;;;;;;;;5088517;27;20043;-75
2022/03/28 10:20:53;;;;;;;16.73;8.05;;;;;;;;;;5081124;28;20027;-75
2022/03/28 10:23:19;;;;;;;15.57;7.38;;;;;;;;;;5084330;28;20035;-74
2022/03/28 10:25:44;;;;;;;13.88;7.13;;;;;;;;;;5079001;27;20044;-74
2022/03/28 10:28:10;;;;;;;18.30;6.50;;;;;;;;;;5083526;28;20085;-76
2022/03/28 10:30:36;;;;;;;12.48;7.38;;;;;;;;;;5083857;28;20039;-74
2022/03/28 10:33:14;;;;;;;12.02;6.63;;;;;;;;;;5080979;28;20027;-76
2022/03/28 10:35:54;;;;;;;13.15;7.85;;;;;;;;;;5079084;28;20551;-74
2022/03/28 10:38:21;;;;;;;13.40;7.45;;;;;;;;;;5080940;28;20454;-77
2022/03/28 10:40:59;;;;;;;13.35;6.38;;;;;;;;;;5076042;28;20331;-75
2022/03/28 10:43:26;;;;;;;11.43;6.37;;;;;;;;;;5076634;28;20027;-76
2022/03/28 10:45:56;;;;;;;15.45;6.15;;;;;;;;;;5080886;28;20252;-76
2022/03/28 10:48:34;;;;;;;14.82;5.80;;;;;;;;;;5083267;28;20455;-75
2022/03/28 10:51:08;;;;;;;9.65;6.05;;;;;;;;;;5097283;28;20123;-75
2022/03/28 10:53:40;;;;;;;10.40;6.03;;;;;;;;;;5086772;28;20036;-74
2022/03/28 10:56:14;;;;;;;12.00;6.82;;;;;;;;;;5084204;28;20020;-72
2022/03/28 10:58:46;;;;;;;19.27;5.82;;;;;;;;;;5096402;28;20027;-71
2022/03/28 11:01:19;;;;;;;9.27;5.68;;;;;;;;;;5097657;28;20413;-73
2022/03/28 11:03:47;;;;;;;9.10;5.63;;;;;;;;;;5095422;28;20031;-73
2022/03/28 11:06:14;;;;;;;8.35;5.75;;;;;;;;;;5096342;28;20065;-73
2022/03/28 11:08:40;;;;;;;10.82;6.18;;;;;;;;;;5095272;28;20028;-72
2022/03/28 11:11:24;;;;;;;12.40;6.28;;;;;;;;;;5096394;28;20032;-74
2022/03/28 11:14:05;;;;;;;16.73;9.00;;;;;;;;;;5097174;28;20437;-72
2022/03/28 11:16:39;;;;;;;12.60;6.65;;;;;;;;;;5096860;28;20149;-73
2022/03/28 11:19:20;;;;;;;10.57;6.35;;;;;;;;;;5095768;28;20024;-73
2022/03/28 11:22:06;;;;;;;9.85;6.18;;;;;;;;;;5098242;28;20465;-72
2022/03/28 11:24:58;;;;;;;13.02;6.32;;;;;;;;;;5100472;28;20473;-73
2022/03/28 11:27:28;;;;;;;7.88;6.95;;;;;;;;;;5097863;28;20035;-72
2022/03/28 11:30:05;;;;;;;14.13;6.85;;;;;;;;;;5101316;27;20038;-73
2022/03/28 11:32:32;;;;;;;9.95;6.18;;;;;;;;;;5100766;28;20347;-73
2022/03/28 11:34:57;;;;;;;7.88;5.40;;;;;;;;;;5099538;28;20035;-73
2022/03/28 11:37:24;;;;;;;12.52;7.03;;;;;;;;;;5100766;28;20031;-73
2022/03/28 11:39:53;;;;;;;12.55;7.22;;;;;;;;;;5098244;28;20137;-72
2022/03/28 11:42:19;;;;;;;15.00;7.93;;;;;;;;;;5099769;28;20019;-73
2022/03/28 11:44:44;;;;;;;13.23;8.18;;;;;;;;;;5100264;28;20165;-73
2022/03/28 11:47:10;;;;;;;15.68;8.20;;;;;;;;;;5099979;28;20135;-72
2022/03/28 11:49:50;;;;;;;13.40;7.65;;;;;;;;;;5101454;28;20062;-72
2022/03/28 11:52:18;;;;;;;11.05;8.77;;;;;;;;;;5099996;28;20043;-74
2022/03/28 11:54:43;;;;;;;14.37;8.23;;;;;;;;;;5098639;28;20389;-73
2022/03/28 11:59:53;;;;;;;15.27;10.85;;;;;;;;;;5100225;28;20034;-72
2022/03/28 12:02:19;;;;;;;21.42;13.23;;;;;;;;;;5098568;28;20051;-73
2022/03/28 12:04:45;;;;;;;17.60;13.63;;;;;;;;;;5100355;27;20355;-73
2022/03/28 12:07:10;;;;;;;24.50;15.57;;;;;;;;;;5099575;27;20034;-72
2022/03/28 12:09:45;;;;;;;17.35;13.68;;;;;;;;;;5098625;28;20039;-71
2022/03/28 12:12:10;;;;;;;23.95;13.45;;;;;;;;;;5097942;28;20077;-72
2022/03/28 12:14:37;;;;;;;18.63;12.13;;;;;;;;;;5099875;28;20035;-73
2022/03/28 12:17:05;;;;;;;15.35;9.40;;;;;;;;;;5099874;27;20028;-71
2022/03/28 12:19:30;;;;;;;18.95;11.57;;;;;;;;;;5099943;28;20107;-72
2022/03/28 12:21:57;;;;;;;13.93;10.80;;;;;;;;;;5097196;28;20057;-72
2022/03/28 12:24:24;;;;;;;16.15;11.95;;;;;;;;;;5101273;28;20062;-72
2022/03/28 12:26:53;;;;;;;15.20;8.73;;;;;;;;;;5094860;28;20028;-72
2022/03/28 12:29:19;;;;;;;10.90;8.15;;;;;;;;;;5094311;28;20047;-72
2022/03/28 12:31:45;;;;;;;11.02;8.40;;;;;;;;;;5097926;28;20053;-73
2022/03/28 12:34:11;;;;;;;13.77;9.57;;;;;;;;;;5102619;28;20358;-72
2022/03/28 12:36:37;;;;;;;17.80;9.75;;;;;;;;;;5103094;28;20047;-72
2022/03/28 12:39:06;;;;;;;16.25;9.52;;;;;;;;;;5101701;28;20031;-71
2022/03/28 12:41:42;;;;;;;17.83;9.13;;;;;;;;;;5100336;28;20035;-71
2022/03/28 12:44:14;;;;;;;15.57;11.18;;;;;;;;;;5098993;28;20073;-72
2022/03/28 12:46:40;;;;;;;17.70;11.25;;;;;;;;;;5098657;28;20027;-73
2022/03/28 12:49:11;;;;;;;16.02;10.93;;;;;;;;;;5100325;28;20062;-72
2022/03/28 12:51:38;;;;;;;18.10;10.45;;;;;;;;;;5100839;28;20293;-72
2022/03/28 12:54:30;;;;;;;20.42;12.57;;;;;;;;;;5098504;28;20035;-72
2022/03/28 12:56:59;;;;;;;17.35;10.30;;;;;;;;;;5095534;28;20059;-73
2022/03/28 12:59:26;;;;;;;18.02;9.73;;;;;;;;;;5095503;28;20031;-72
2022/03/28 13:01:53;;;;;;;16.48;10.65;;;;;;;;;;5097507;28;20015;-72
2022/03/28 13:04:20;;;;;;;18.88;11.45;;;;;;;;;;5099164;28;20050;-72
2022/03/28 13:06:50;;;;;;;17.52;9.98;;;;;;;;;;5097944;28;20051;-72
2022/03/28 13:09:19;;;;;;;24.58;15.75;;;;;;;;;;5097837;28;20028;-71
2022/03/28 13:11:46;;;;;;;26.52;11.48;;;;;;;;;;5094512;28;20058;-71
2022/03/28 13:14:28;;;;;;;28.13;16.58;;;;;;;;;;5097906;28;20035;-73
2022/03/28 13:17:10;;;;;;;35.40;14.38;;;;;;;;;;5099082;28;20016;-73
2022/03/28 13:19:36;;;;;;;23.35;12.75;;;;;;;;;;5097700;28;20367;-72
2022/03/28 13:22:04;;;;;;;23.17;12.35;;;;;;;;;;5098384;27;20415;-72
2022/03/28 13:24:30;;;;;;;20.13;12.13;;;;;;;;;;5086826;28;20100;-72
2022/03/28 13:29:46;;;;;;;24.23;12.75;;;;;;;;;;5098363;28;20347;-73
2022/03/28 13:32:12;;;;;;;21.05;11.20;;;;;;;;;;5098918;28;20019;-73
2022/03/28 13:34:37;;;;;;;23.85;11.85;;;;;;;;;;5097167;28;20031;-74
2022/03/28 13:37:05;;;;;;;16.75;9.98;;;;;;;;;;5098883;28;20019;-73
2022/03/28 13:39:31;;;;;;;46.58;13.15;;;;;;;;;;5099815;28;20852;-74
2022/03/28 13:41:57;;;;;;;18.33;11.18;;;;;;;;;;5098179;28;20135;-74
2022/03/28 13:44:22;;;;;;;19.08;11.27;;;;;;;;;;5095309;28;20069;-74
2022/03/28 13:46:49;;;;;;;28.48;14.73;;;;;;;;;;5099563;28;20036;-73
2022/03/28 13:49:14;;;;;;;18.70;11.13;;;;;;;;;;5096702;28;20047;-73
2022/03/28 13:51:39;;;;;;;19.77;13.75;;;;;;;;;;5096732;28;20899;-73
2022/03/28 13:54:05;;;;;;;23.60;11.93;;;;;;;;;;5095493;28;20031;-74
2022/03/28 13:56:30;;;;;;;25.52;11.77;;;;;;;;;;5097977;28;20102;-74
2022/03/28 13:58:56;;;;;;;21.13;14.85;;;;;;;;;;5097350;28;20030;-75
2022/03/28 14:01:27;;;;;;;20.00;12.35;;;;;;;;;;5097490;28;20123;-75
2022/03/28 14:03:53;;;;;;;17.27;12.20;;;;;;;;;;5096870;28;20039;-74
2022/03/28 14:06:19;;;;;;;19.88;11.05;;;;;;;;;;5098505;28;20040;-73
2022/03/28 14:08:44;;;;;;;30.08;17.85;;;;;;;;;;5098637;28;21137;-72
2022/03/28 14:11:13;;;;;;;18.13;11.27;;;;;;;;;;5098054;28;20327;-72
2022/03/28 14:13:38;;;;;;;26.92;15.48;;;;;;;;;;5093846;28;20052;-74
2022/03/28 14:16:04;;;;;;;30.25;17.08;;;;;;;;;;5098158;28;20062;-73
2022/03/28 14:18:30;;;;;;;23.98;13.82;;;;;;;;;;5095641;28;20020;-73
2022/03/28 14:20:55;;;;;;;24.55;13.93;;;;;;;;;;5098869;28;20050;-73
2022/03/28 14:23:21;;;;;;;26.20;16.85;;;;;;;;;;5094424;28;20028;-72
2022/03/28 14:25:46;;;;;;;21.25;14.50;;;;;;;;;;5083134;28;20028;-74
2022/03/28 14:28:11;;;;;;;25.60;16.00;;;;;;;;;;5084680;28;20043;-74